SHT3T EGCC-EGLL
Flight info
| Callsign | SHT3T |
|---|---|
| Flight time | 0h 34m |
| Altitude | 19000 |
| Route | SANBA1Y SANBA N859 HON HON2H |
| Aircraft | A319/M-SDE3FGIJ1KRWXY/LB1 |
Departure
| Time | 2026-05-07 17:03 |
|---|---|
| Airport | Manchester Airport (EGCC) |
Arrival
| Time | 2026-05-07 17:37 |
|---|---|
| Airport | London Heathrow Airport (EGLL) |
| Time | Latitude | Longitude | Altitude | Speed | Heading |
|---|---|---|---|---|---|
| 2026-05-07 16:16 | 53.36863 | -2.28833 | 255 ft | 0 kts | 135° |
| 2026-05-07 16:49 | 53.36875 | -2.28852 | 255 ft | 4 kts | 135° |
| 2026-05-07 16:49 | 53.36889 | -2.28877 | 255 ft | 4 kts | 151° |
| 2026-05-07 16:49 | 53.36906 | -2.28875 | 255 ft | 3 kts | 224° |
| 2026-05-07 16:50 | 53.36899 | -2.28886 | 255 ft | 4 kts | 225° |
| 2026-05-07 16:50 | 53.36881 | -2.28917 | 255 ft | 4 kts | 225° |
| 2026-05-07 16:50 | 53.36867 | -2.28940 | 255 ft | 0 kts | 225° |
| 2026-05-07 16:53 | 53.36865 | -2.28942 | 255 ft | 1 kts | 225° |
| 2026-05-07 16:53 | 53.36851 | -2.28967 | 255 ft | 5 kts | 225° |
| 2026-05-07 16:54 | 53.36815 | -2.29014 | 255 ft | 8 kts | 206° |
| 2026-05-07 16:54 | 53.36775 | -2.29037 | 255 ft | 9 kts | 197° |
| 2026-05-07 16:54 | 53.36721 | -2.28997 | 255 ft | 9 kts | 135° |
| 2026-05-07 16:54 | 53.36695 | -2.28954 | 255 ft | 3 kts | 135° |
| 2026-05-07 16:55 | 53.36681 | -2.28931 | 255 ft | 2 kts | 135° |
| 2026-05-07 16:55 | 53.36661 | -2.28904 | 255 ft | 7 kts | 147° |
| 2026-05-07 16:55 | 53.36607 | -2.28853 | 255 ft | 9 kts | 129° |
| 2026-05-07 16:55 | 53.36576 | -2.28760 | 255 ft | 10 kts | 119° |
| 2026-05-07 16:56 | 53.36525 | -2.28665 | 255 ft | 12 kts | 135° |
| 2026-05-07 16:56 | 53.36463 | -2.28559 | 255 ft | 13 kts | 134° |
| 2026-05-07 16:56 | 53.36367 | -2.28321 | 255 ft | 12 kts | 135° |
| 2026-05-07 16:57 | 53.36305 | -2.28221 | 255 ft | 12 kts | 137° |
| 2026-05-07 16:57 | 53.36244 | -2.28124 | 255 ft | 12 kts | 131° |
| 2026-05-07 16:57 | 53.36187 | -2.28021 | 255 ft | 12 kts | 134° |
| 2026-05-07 16:57 | 53.36124 | -2.27931 | 255 ft | 12 kts | 144° |
| 2026-05-07 16:58 | 53.36058 | -2.27848 | 255 ft | 12 kts | 142° |
| 2026-05-07 16:58 | 53.35993 | -2.27762 | 255 ft | 12 kts | 142° |
| 2026-05-07 16:58 | 53.35913 | -2.27727 | 255 ft | 13 kts | 181° |
| 2026-05-07 16:58 | 53.35846 | -2.27731 | 254 ft | 10 kts | 181° |
| 2026-05-07 16:59 | 53.35807 | -2.27717 | 252 ft | 2 kts | 146° |
| 2026-05-07 16:59 | 53.35800 | -2.27707 | 252 ft | 4 kts | 140° |
| 2026-05-07 16:59 | 53.35766 | -2.27658 | 251 ft | 9 kts | 143° |
| 2026-05-07 16:59 | 53.35694 | -2.27617 | 247 ft | 7 kts | 158° |
| 2026-05-07 17:00 | 53.35635 | -2.27544 | 246 ft | 12 kts | 141° |
| 2026-05-07 17:00 | 53.35576 | -2.27463 | 245 ft | 13 kts | 141° |
| 2026-05-07 17:00 | 53.35498 | -2.27357 | 249 ft | 18 kts | 141° |
| 2026-05-07 17:00 | 53.35387 | -2.27209 | 246 ft | 18 kts | 144° |
| 2026-05-07 17:01 | 53.35306 | -2.27198 | 242 ft | 9 kts | 191° |
| 2026-05-07 17:01 | 53.35223 | -2.27226 | 239 ft | 9 kts | 191° |
| 2026-05-07 17:01 | 53.35165 | -2.27245 | 231 ft | 12 kts | 191° |
| 2026-05-07 17:01 | 53.35060 | -2.27281 | 227 ft | 14 kts | 192° |
| 2026-05-07 17:02 | 53.35017 | -2.27301 | 226 ft | 6 kts | 207° |
| 2026-05-07 17:02 | 53.35003 | -2.27329 | 225 ft | 0 kts | 231° |
| 2026-05-07 17:02 | 53.34966 | -2.27403 | 226 ft | 29 kts | 231° |
| 2026-05-07 17:03 | 53.34696 | -2.27964 | 227 ft | 93 kts | 231° |
| 2026-05-07 17:03 | 53.34163 | -2.29060 | 232 ft | 148 kts | 230° |
| 2026-05-07 17:03 | 53.33472 | -2.30459 | 736 ft | 154 kts | 230° |
| 2026-05-07 17:03 | 53.32800 | -2.31843 | 1470 ft | 153 kts | 230° |
| 2026-05-07 17:04 | 53.32119 | -2.33280 | 1998 ft | 166 kts | 231° |
| 2026-05-07 17:04 | 53.31811 | -2.35238 | 2395 ft | 193 kts | 277° |
| 2026-05-07 17:04 | 53.32496 | -2.37306 | 2843 ft | 216 kts | 305° |
| 2026-05-07 17:04 | 53.33134 | -2.39688 | 3286 ft | 237 kts | 273° |
| 2026-05-07 17:05 | 53.32863 | -2.42455 | 3984 ft | 250 kts | 242° |
| 2026-05-07 17:05 | 53.31741 | -2.44696 | 4832 ft | 257 kts | 214° |
| 2026-05-07 17:05 | 53.30096 | -2.45918 | 4994 ft | 259 kts | 191° |
| 2026-05-07 17:05 | 53.28321 | -2.45879 | 5051 ft | 258 kts | 165° |
| 2026-05-07 17:06 | 53.26712 | -2.44628 | 5115 ft | 260 kts | 153° |
| 2026-05-07 17:06 | 53.25119 | -2.43208 | 5142 ft | 259 kts | 154° |
| 2026-05-07 17:06 | 53.23529 | -2.41781 | 5297 ft | 260 kts | 153° |
| 2026-05-07 17:06 | 53.21929 | -2.40345 | 5386 ft | 261 kts | 154° |
| 2026-05-07 17:07 | 53.20322 | -2.38930 | 6299 ft | 263 kts | 154° |
| 2026-05-07 17:07 | 53.18688 | -2.37509 | 7333 ft | 265 kts | 154° |
| 2026-05-07 17:07 | 53.17053 | -2.36105 | 8394 ft | 266 kts | 155° |
| 2026-05-07 17:07 | 53.15373 | -2.34660 | 9225 ft | 275 kts | 155° |
| 2026-05-07 17:08 | 53.13660 | -2.33175 | 10134 ft | 280 kts | 155° |
| 2026-05-07 17:08 | 53.11869 | -2.31623 | 10627 ft | 302 kts | 155° |
| 2026-05-07 17:08 | 53.09935 | -2.29950 | 11068 ft | 321 kts | 155° |
| 2026-05-07 17:08 | 53.07936 | -2.28210 | 11801 ft | 328 kts | 154° |
| 2026-05-07 17:09 | 53.05905 | -2.26438 | 12627 ft | 331 kts | 154° |
| 2026-05-07 17:09 | 53.03851 | -2.24649 | 13415 ft | 335 kts | 154° |
| 2026-05-07 17:09 | 53.01770 | -2.22839 | 14175 ft | 339 kts | 154° |
| 2026-05-07 17:09 | 52.99671 | -2.21014 | 14911 ft | 344 kts | 154° |
| 2026-05-07 17:10 | 52.97538 | -2.19161 | 15647 ft | 347 kts | 154° |
| 2026-05-07 17:10 | 52.95387 | -2.17294 | 16351 ft | 351 kts | 154° |
| 2026-05-07 17:10 | 52.93210 | -2.15403 | 17010 ft | 356 kts | 154° |
| 2026-05-07 17:10 | 52.90999 | -2.13487 | 17681 ft | 360 kts | 154° |
| 2026-05-07 17:11 | 52.88768 | -2.11560 | 18336 ft | 364 kts | 154° |
| 2026-05-07 17:11 | 52.86508 | -2.09614 | 18857 ft | 368 kts | 154° |
| 2026-05-07 17:11 | 52.84236 | -2.07659 | 19001 ft | 369 kts | 154° |
| 2026-05-07 17:11 | 52.81946 | -2.05691 | 19026 ft | 372 kts | 154° |
| 2026-05-07 17:12 | 52.79650 | -2.03720 | 19027 ft | 372 kts | 154° |
| 2026-05-07 17:12 | 52.77384 | -2.01775 | 19027 ft | 372 kts | 154° |
| 2026-05-07 17:12 | 52.75085 | -1.99806 | 19025 ft | 372 kts | 154° |
| 2026-05-07 17:12 | 52.72780 | -1.97834 | 19027 ft | 372 kts | 154° |
| 2026-05-07 17:13 | 52.70479 | -1.95867 | 19027 ft | 372 kts | 154° |
| 2026-05-07 17:13 | 52.68181 | -1.93906 | 19026 ft | 373 kts | 154° |
| 2026-05-07 17:13 | 52.65877 | -1.91942 | 19027 ft | 373 kts | 154° |
| 2026-05-07 17:13 | 52.63570 | -1.89976 | 19028 ft | 373 kts | 154° |
| 2026-05-07 17:14 | 52.61263 | -1.88011 | 19028 ft | 373 kts | 154° |
| 2026-05-07 17:14 | 52.58954 | -1.86045 | 19023 ft | 373 kts | 154° |
| 2026-05-07 17:14 | 52.56647 | -1.84082 | 19029 ft | 374 kts | 154° |
| 2026-05-07 17:14 | 52.54337 | -1.82119 | 19028 ft | 374 kts | 154° |
| 2026-05-07 17:15 | 52.52030 | -1.80160 | 19029 ft | 374 kts | 154° |
| 2026-05-07 17:15 | 52.49714 | -1.78200 | 19029 ft | 374 kts | 155° |
| 2026-05-07 17:15 | 52.47407 | -1.76255 | 19032 ft | 374 kts | 155° |
| 2026-05-07 17:15 | 52.45091 | -1.74306 | 19033 ft | 374 kts | 155° |
| 2026-05-07 17:16 | 52.42780 | -1.72363 | 19033 ft | 374 kts | 155° |
| 2026-05-07 17:16 | 52.40466 | -1.70420 | 19032 ft | 374 kts | 155° |
| 2026-05-07 17:16 | 52.38153 | -1.68479 | 19032 ft | 374 kts | 155° |
| 2026-05-07 17:16 | 52.35874 | -1.66416 | 19031 ft | 375 kts | 148° |
| 2026-05-07 17:17 | 52.33848 | -1.63805 | 19032 ft | 377 kts | 141° |
| 2026-05-07 17:17 | 52.31873 | -1.60987 | 19030 ft | 377 kts | 141° |
| 2026-05-07 17:17 | 52.29887 | -1.58181 | 19031 ft | 377 kts | 141° |
| 2026-05-07 17:17 | 52.27900 | -1.55391 | 19029 ft | 377 kts | 141° |
| 2026-05-07 17:18 | 52.25913 | -1.52610 | 19028 ft | 377 kts | 141° |
| 2026-05-07 17:18 | 52.23924 | -1.49827 | 19024 ft | 377 kts | 141° |
| 2026-05-07 17:18 | 52.21933 | -1.47036 | 19029 ft | 377 kts | 141° |
| 2026-05-07 17:18 | 52.19950 | -1.44252 | 19028 ft | 377 kts | 141° |
| 2026-05-07 17:19 | 52.17962 | -1.41462 | 19028 ft | 377 kts | 141° |
| 2026-05-07 17:19 | 52.15976 | -1.38688 | 19027 ft | 376 kts | 141° |
| 2026-05-07 17:19 | 52.13987 | -1.35916 | 19027 ft | 376 kts | 141° |
| 2026-05-07 17:19 | 52.11999 | -1.33147 | 19026 ft | 376 kts | 141° |
| 2026-05-07 17:20 | 52.10012 | -1.30383 | 18930 ft | 374 kts | 141° |
| 2026-05-07 17:20 | 52.08031 | -1.27630 | 18257 ft | 375 kts | 141° |
| 2026-05-07 17:20 | 52.06056 | -1.24888 | 17751 ft | 370 kts | 141° |
| 2026-05-07 17:20 | 52.04111 | -1.22188 | 17234 ft | 365 kts | 141° |
| 2026-05-07 17:21 | 52.02188 | -1.19520 | 16734 ft | 360 kts | 141° |
| 2026-05-07 17:21 | 52.00297 | -1.16899 | 16219 ft | 355 kts | 141° |
| 2026-05-07 17:21 | 51.98426 | -1.14309 | 15721 ft | 350 kts | 141° |
| 2026-05-07 17:21 | 51.96583 | -1.11770 | 15227 ft | 346 kts | 141° |
| 2026-05-07 17:22 | 51.94755 | -1.09254 | 14593 ft | 344 kts | 141° |
| 2026-05-07 17:22 | 51.92933 | -1.06746 | 13783 ft | 340 kts | 141° |
| 2026-05-07 17:22 | 51.91183 | -1.04338 | 13629 ft | 321 kts | 141° |
| 2026-05-07 17:22 | 51.89533 | -1.02072 | 13490 ft | 301 kts | 142° |
| 2026-05-07 17:23 | 51.87992 | -0.99954 | 13364 ft | 281 kts | 142° |
| 2026-05-07 17:23 | 51.86542 | -0.97959 | 13152 ft | 268 kts | 142° |
| 2026-05-07 17:23 | 51.85260 | -0.95818 | 12744 ft | 265 kts | 128° |
| 2026-05-07 17:23 | 51.84364 | -0.93223 | 12283 ft | 264 kts | 118° |
| 2026-05-07 17:24 | 51.83560 | -0.90557 | 11813 ft | 263 kts | 118° |
| 2026-05-07 17:24 | 51.82756 | -0.87915 | 11405 ft | 263 kts | 118° |
| 2026-05-07 17:24 | 51.81955 | -0.85290 | 11054 ft | 260 kts | 118° |
| 2026-05-07 17:24 | 51.81161 | -0.82703 | 10670 ft | 259 kts | 119° |
| 2026-05-07 17:25 | 51.80119 | -0.80359 | 10201 ft | 258 kts | 142° |
| 2026-05-07 17:25 | 51.78538 | -0.79170 | 9908 ft | 249 kts | 172° |
| 2026-05-07 17:25 | 51.76829 | -0.78995 | 9574 ft | 245 kts | 180° |
| 2026-05-07 17:25 | 51.75121 | -0.78981 | 9201 ft | 245 kts | 181° |
| 2026-05-07 17:26 | 51.73422 | -0.78976 | 8812 ft | 244 kts | 181° |
| 2026-05-07 17:26 | 51.71726 | -0.78970 | 8449 ft | 243 kts | 181° |
| 2026-05-07 17:26 | 51.70049 | -0.78966 | 8099 ft | 241 kts | 181° |
| 2026-05-07 17:26 | 51.68378 | -0.78967 | 8033 ft | 240 kts | 181° |
| 2026-05-07 17:27 | 51.66703 | -0.78980 | 8036 ft | 238 kts | 181° |
| 2026-05-07 17:27 | 51.65073 | -0.78992 | 8033 ft | 232 kts | 181° |
| 2026-05-07 17:27 | 51.63465 | -0.79004 | 8031 ft | 230 kts | 181° |
| 2026-05-07 17:27 | 51.61909 | -0.79459 | 8030 ft | 229 kts | 206° |
| 2026-05-07 17:28 | 51.60656 | -0.81018 | 7915 ft | 227 kts | 224° |
| 2026-05-07 17:28 | 51.59547 | -0.82842 | 7540 ft | 228 kts | 226° |
| 2026-05-07 17:28 | 51.58457 | -0.84695 | 7189 ft | 228 kts | 226° |
| 2026-05-07 17:28 | 51.57369 | -0.86555 | 6860 ft | 227 kts | 226° |
| 2026-05-07 17:29 | 51.56296 | -0.88400 | 6590 ft | 223 kts | 226° |
| 2026-05-07 17:29 | 51.55269 | -0.90186 | 6449 ft | 212 kts | 226° |
| 2026-05-07 17:29 | 51.54303 | -0.91878 | 6354 ft | 198 kts | 226° |
| 2026-05-07 17:29 | 51.53405 | -0.93455 | 6110 ft | 192 kts | 225° |
| 2026-05-07 17:30 | 51.52298 | -0.94595 | 5737 ft | 189 kts | 192° |
| 2026-05-07 17:30 | 51.51028 | -0.94332 | 5391 ft | 188 kts | 153° |
| 2026-05-07 17:30 | 51.50104 | -0.92913 | 5036 ft | 188 kts | 129° |
| 2026-05-07 17:30 | 51.49360 | -0.91230 | 4850 ft | 179 kts | 126° |
| 2026-05-07 17:31 | 51.48681 | -0.89629 | 4708 ft | 169 kts | 126° |
| 2026-05-07 17:31 | 51.48030 | -0.88087 | 4467 ft | 166 kts | 126° |
| 2026-05-07 17:31 | 51.47566 | -0.86409 | 4172 ft | 167 kts | 101° |
| 2026-05-07 17:31 | 51.47540 | -0.84532 | 3872 ft | 169 kts | 91° |
| 2026-05-07 17:32 | 51.47557 | -0.82661 | 3682 ft | 168 kts | 91° |
| 2026-05-07 17:32 | 51.47571 | -0.80790 | 3507 ft | 167 kts | 91° |
| 2026-05-07 17:32 | 51.47584 | -0.78927 | 3333 ft | 167 kts | 91° |
| 2026-05-07 17:32 | 51.47592 | -0.77701 | 3218 ft | 166 kts | 91° |
| 2026-05-07 17:33 | 51.47609 | -0.75222 | 3077 ft | 166 kts | 91° |
| 2026-05-07 17:33 | 51.47620 | -0.73374 | 3012 ft | 166 kts | 91° |
| 2026-05-07 17:33 | 51.47631 | -0.71523 | 2847 ft | 166 kts | 91° |
| 2026-05-07 17:33 | 51.47643 | -0.69675 | 2651 ft | 165 kts | 92° |
| 2026-05-07 17:34 | 51.47653 | -0.67842 | 2435 ft | 164 kts | 92° |
| 2026-05-07 17:34 | 51.47664 | -0.66020 | 2223 ft | 163 kts | 92° |
| 2026-05-07 17:34 | 51.47673 | -0.64204 | 2007 ft | 162 kts | 92° |
| 2026-05-07 17:34 | 51.47683 | -0.62410 | 1793 ft | 158 kts | 92° |
| 2026-05-07 17:35 | 51.47693 | -0.60702 | 1594 ft | 147 kts | 92° |
| 2026-05-07 17:35 | 51.47701 | -0.59158 | 1413 ft | 133 kts | 93° |
| 2026-05-07 17:35 | 51.47708 | -0.57727 | 1246 ft | 127 kts | 93° |
| 2026-05-07 17:35 | 51.47714 | -0.56316 | 1068 ft | 125 kts | 93° |
| 2026-05-07 17:36 | 51.47721 | -0.54925 | 906 ft | 125 kts | 93° |
| 2026-05-07 17:36 | 51.47727 | -0.53536 | 739 ft | 124 kts | 93° |
| 2026-05-07 17:36 | 51.47735 | -0.52149 | 570 ft | 124 kts | 92° |
| 2026-05-07 17:36 | 51.47742 | -0.50764 | 388 ft | 124 kts | 92° |
| 2026-05-07 17:37 | 51.47747 | -0.49380 | 221 ft | 124 kts | 92° |
| 2026-05-07 17:37 | 51.47753 | -0.48004 | 103 ft | 123 kts | 91° |
| 2026-05-07 17:37 | 51.47755 | -0.46812 | 91 ft | 86 kts | 89° |
| 2026-05-07 17:37 | 51.47760 | -0.46125 | 86 ft | 41 kts | 89° |
| 2026-05-07 17:38 | 51.47761 | -0.45721 | 84 ft | 31 kts | 90° |
| 2026-05-07 17:38 | 51.47746 | -0.45510 | 86 ft | 12 kts | 124° |
| 2026-05-07 17:38 | 51.47688 | -0.45467 | 86 ft | 10 kts | 177° |
| 2026-05-07 17:38 | 51.47608 | -0.45479 | 86 ft | 13 kts | 213° |
| 2026-05-07 17:39 | 51.47596 | -0.45633 | 89 ft | 13 kts | 270° |
| 2026-05-07 17:39 | 51.47595 | -0.45757 | 90 ft | 12 kts | 269° |
| 2026-05-07 17:39 | 51.47595 | -0.45904 | 86 ft | 15 kts | 269° |
| 2026-05-07 17:39 | 51.47594 | -0.46083 | 88 ft | 17 kts | 270° |
| 2026-05-07 17:40 | 51.47593 | -0.46291 | 88 ft | 20 kts | 269° |
| 2026-05-07 17:40 | 51.47593 | -0.46527 | 88 ft | 22 kts | 270° |
| 2026-05-07 17:40 | 51.47591 | -0.46790 | 89 ft | 23 kts | 268° |
| 2026-05-07 17:40 | 51.47582 | -0.47009 | 86 ft | 21 kts | 270° |
| 2026-05-07 17:41 | 51.47582 | -0.47253 | 87 ft | 22 kts | 270° |
| 2026-05-07 17:41 | 51.47582 | -0.47493 | 90 ft | 21 kts | 269° |
| 2026-05-07 17:41 | 51.47580 | -0.47729 | 86 ft | 21 kts | 269° |
| 2026-05-07 17:41 | 51.47579 | -0.47961 | 87 ft | 21 kts | 270° |
| 2026-05-07 17:42 | 51.47578 | -0.48191 | 91 ft | 21 kts | 269° |
| 2026-05-07 17:42 | 51.47576 | -0.48390 | 89 ft | 10 kts | 269° |
| 2026-05-07 17:42 | 51.47544 | -0.48474 | 86 ft | 9 kts | 193° |
| 2026-05-07 17:42 | 51.47482 | -0.48475 | 90 ft | 9 kts | 180° |
| 2026-05-07 17:43 | 51.47418 | -0.48476 | 86 ft | 9 kts | 180° |
| 2026-05-07 17:43 | 51.47393 | -0.48476 | 86 ft | 3 kts | 179° |
| 2026-05-07 17:43 | 51.47372 | -0.48475 | 88 ft | 3 kts | 184° |
| 2026-05-07 17:43 | 51.47361 | -0.48523 | 86 ft | 6 kts | 276° |
| 2026-05-07 17:44 | 51.47361 | -0.48564 | 86 ft | 3 kts | 269° |
| 2026-05-07 17:44 | 51.47361 | -0.48587 | 88 ft | 1 kts | 270° |
| 2026-05-07 17:44 | 51.47361 | -0.48588 | 88 ft | 0 kts | 270° |